Atlanta, MI

6:34 AM EDT on April 26, 2015 (GMT -0400)
Moon Lake | | Change Station
CLOSE
Current Station
Personal Weather Station
Location: Lewiston, MI
Elevation: 1240 ft
Nearby Weather Stations

Elev 1240 ft 44.84 °N, 84.26 °W | Updated 5 seconds ago

Clear
Clear
26.3 °F
Feels Like 26 °F
N
0.0
Wind Variable Wind from NW
Gusts 0.0 mph

Today
High -- | Low -- °F
--% Chance of Precip.
Yesterday
High -- | Low -- °F
Precip. -- in
6:33 AM 8:35 PM
First Quarter, 54% visible
Pressure 29.97 in
Visibility 10.0 miles
Clouds Clear
Windchill 26 °F
Dew Point 19 °F
Humidity 73%
Rainfall 0.00 in
Snow Depth Not available.
UV 0 out of 12
Pollen 8.80 out of 12
Air Quality Not available.
Flu Activity Regional
METAR KGLR 260953Z AUTO 00000KT 10SM CLR M01/M05 A2993 RMK AO2 SLP147 T10061050

More Conditions Fewer Conditions

Pressure 29.97 in
Visibility 10.0 miles
Clouds Clear
Windchill 26 °F
Dew Point 19 °F
Humidity 73%
Rainfall 0.00 in
Snow Depth Not available.
UV 0 out of 12
Pollen 8.80 out of 12
Air Quality Not available.
Flu Activity Regional
METAR KGLR 260953Z AUTO 00000KT 10SM CLR M01/M05 A2993 RMK AO2 SLP147 T10061050

More Conditions Fewer Conditions

The full scope of the disaster following a powerful 7.8-magnitude earthquake in Nepal may not come into view for days, but global charities are already sending emergency aid. Click to see how you can help.
Nowcast | as of 6:00 am EDT on April 26, 2015

At 7 am...clear. Temperature 31. Light winds. At 9 am...mostly clear. Temperature 38. North winds 5 mph. At 11 am...mostly clear. Temperature 44. North winds 8 mph. At 1 PM...partly cloudy. Temperature 48. North winds 9 mph.

×

10-Day Weather Forecast

Almanac

Astronomy

Apr. 26, 2015 Rise Set
Actual Time
Civil Twilight
Nautical Twilight
Astronomical Twilight
Moon
Length of Visible Light
Length of Day
Tomorrow will be .
, % of the Moon is Illuminated

Today's Extremes

State Highs State Lows

Community

WunderPhotos

Upload Photos

1,816,962 photos uploaded!

WunderBlogs® & News

Nearby

Air Quality

  Air Quality AQ Index Pollutant
Not available.

Snow Depth

Station Depth Elevation

Earthquake Activity

City Distance Mag. Time & Date
Minimum magnitude displayed is 2.5.

Coastal Water Temperatures

Place Temperature

Stations

Nearby Weather Stations

Station Location Temp. Windchill Dew Point Humidity Wind Precip. Elev Updated Type